createdAt,value
2018-05-19T00:00:23.813Z,85.40
2018-05-19T00:02:51.296Z,85.30
2018-05-19T00:05:18.769Z,85.40
2018-05-19T00:07:46.266Z,85.40
2018-05-19T00:10:13.740Z,85.80
2018-05-19T00:12:41.212Z,85.80
2018-05-19T00:15:09.477Z,86.70
2018-05-19T00:17:37.719Z,87.40
2018-05-19T00:20:05.198Z,86.60
2018-05-19T00:25:25.681Z,87.60
2018-05-19T00:27:53.173Z,87.70
2018-05-19T00:30:21.412Z,88.20
2018-05-19T00:32:48.893Z,88.20
2018-05-19T00:35:17.215Z,87.60
2018-05-19T00:37:44.690Z,88.00
2018-05-19T00:40:12.165Z,88.30
2018-05-19T00:42:39.661Z,88.90
2018-05-19T00:45:07.136Z,88.60
2018-05-19T00:47:34.617Z,89.20
2018-05-19T00:50:02.120Z,88.60
2018-05-19T00:52:30.361Z,89.30
2018-05-19T00:55:06.609Z,89.30
2018-05-19T00:57:34.081Z,89.80
2018-05-19T01:00:01.553Z,89.70
2018-05-19T01:02:29.045Z,89.60
2018-05-19T01:04:56.515Z,90.00
2018-05-19T01:07:23.988Z,90.00
2018-05-19T01:09:51.486Z,90.10
2018-05-19T01:12:19.725Z,90.30
2018-05-19T01:14:47.205Z,90.30
2018-05-19T01:17:15.477Z,90.50
2018-05-19T01:19:42.941Z,90.40
2018-05-19T01:22:11.186Z,90.90
2018-05-19T01:24:38.678Z,90.90
2018-05-19T01:27:06.924Z,90.80
2018-05-19T01:29:34.397Z,90.80
2018-05-19T01:32:02.657Z,91.00
2018-05-19T01:34:30.139Z,90.90
2018-05-19T01:36:58.377Z,91.10
2018-05-19T01:39:26.662Z,90.90
2018-05-19T01:41:54.134Z,91.40
2018-05-19T01:44:22.381Z,92.00
2018-05-19T01:46:51.397Z,92.20
2018-05-19T01:49:18.860Z,91.90
2018-05-19T01:51:47.098Z,91.90
2018-05-19T01:54:14.589Z,91.90
2018-05-19T01:56:42.826Z,92.20
2018-05-19T01:59:10.293Z,92.20
2018-05-19T02:01:37.785Z,92.00
2018-05-19T02:04:06.034Z,92.40
2018-05-19T02:06:33.504Z,92.40
2018-05-19T02:09:01.764Z,92.50
2018-05-19T02:11:29.241Z,92.50
2018-05-19T02:13:57.485Z,92.40
2018-05-19T02:16:24.973Z,92.40
2018-05-19T02:18:53.217Z,92.50
2018-05-19T02:21:20.693Z,92.50
2018-05-19T02:23:48.957Z,92.80
2018-05-19T02:26:16.429Z,92.80
2018-05-19T02:28:44.662Z,92.90
2018-05-19T02:31:12.929Z,92.80
2018-05-19T02:33:40.403Z,92.80
2018-05-19T02:36:07.877Z,92.90
2018-05-19T02:38:36.134Z,93.70
2018-05-19T02:41:03.617Z,93.40
2018-05-19T02:43:31.853Z,93.40
2018-05-19T02:45:59.346Z,93.40
2018-05-19T02:48:27.581Z,93.60
2018-05-19T02:50:55.061Z,93.60
2018-05-19T02:53:22.559Z,93.60
2018-05-19T02:55:50.034Z,93.90
2018-05-19T02:58:17.502Z,93.70
2018-05-19T03:00:44.998Z,93.80
2018-05-19T03:03:13.237Z,93.50
2018-05-19T03:05:40.705Z,93.50
2018-05-19T03:08:08.205Z,93.70
2018-05-19T03:10:35.673Z,93.70
2018-05-19T03:13:03.154Z,93.70
2018-05-19T03:15:30.652Z,93.90
2018-05-19T03:17:58.885Z,94.20
2018-05-19T03:20:26.354Z,94.20
2018-05-19T03:22:53.849Z,94.30
2018-05-19T03:25:21.317Z,94.00
2018-05-19T03:27:48.790Z,94.00
2018-05-19T03:30:16.293Z,94.10
2018-05-19T03:32:43.765Z,94.30
2018-05-19T03:35:12.005Z,94.10
2018-05-19T03:37:39.497Z,94.10
2018-05-19T03:40:07.729Z,94.20
2018-05-19T03:42:35.966Z,94.50
2018-05-19T03:45:03.460Z,94.40
2018-05-19T03:47:30.943Z,94.00
2018-05-19T03:49:59.183Z,94.50
2018-05-19T03:52:26.687Z,94.30
2018-05-19T03:54:54.973Z,94.50
2018-05-19T03:57:34.298Z,94.40
2018-05-19T04:00:14.501Z,94.40
2018-05-19T04:02:41.996Z,94.40
2018-05-19T04:05:10.237Z,94.50
2018-05-19T04:07:37.715Z,94.50
2018-05-19T04:10:05.215Z,94.30
2018-05-19T04:12:32.690Z,94.10
2018-05-19T04:15:00.161Z,94.00
2018-05-19T04:17:27.658Z,94.20
2018-05-19T04:19:55.894Z,93.90
2018-05-19T04:22:23.378Z,93.90
2018-05-19T04:24:51.646Z,93.70
2018-05-19T04:27:19.881Z,93.90
2018-05-19T04:29:47.348Z,93.90
2018-05-19T04:32:14.846Z,94.10
2018-05-19T04:34:43.083Z,93.80
2018-05-19T04:37:10.557Z,93.80
2018-05-19T04:39:38.050Z,93.70
2018-05-19T04:42:05.530Z,93.60
2018-05-19T04:44:32.996Z,93.50
2018-05-19T04:47:00.497Z,93.30
2018-05-19T04:49:28.743Z,92.20
2018-05-19T04:51:56.217Z,92.70
2018-05-19T04:54:24.496Z,91.50
2018-05-19T04:56:52.747Z,93.60
2018-05-19T04:59:20.229Z,93.60
2018-05-19T05:01:48.489Z,92.50
2018-05-19T05:04:15.961Z,92.40
2018-05-19T05:06:44.201Z,90.70
2018-05-19T05:09:11.696Z,90.60
2018-05-19T05:11:39.942Z,88.70
2018-05-19T05:14:07.417Z,88.60
2018-05-19T05:16:35.682Z,88.50
2018-05-19T05:19:03.156Z,88.50
2018-05-19T05:21:31.421Z,89.20
2018-05-19T05:23:59.732Z,87.80
2018-05-19T05:26:27.209Z,87.70
2018-05-19T05:28:54.713Z,87.10
2018-05-19T05:31:22.957Z,85.20
2018-05-19T05:33:50.433Z,85.20
2018-05-19T05:36:18.708Z,85.50
2018-05-19T05:38:46.949Z,84.90
2018-05-19T05:41:14.433Z,84.90
2018-05-19T05:43:41.932Z,85.10
2018-05-19T05:46:09.407Z,84.80
2018-05-19T05:48:36.882Z,85.10
2018-05-19T05:51:04.381Z,85.00
2018-05-19T05:53:31.856Z,84.50
2018-05-19T05:55:59.330Z,84.40
2018-05-19T05:58:26.829Z,83.50
2018-05-19T06:00:55.077Z,83.20
2018-05-19T06:03:22.554Z,82.60
2018-05-19T06:05:50.829Z,81.70
2018-05-19T06:08:19.065Z,81.50
2018-05-19T06:10:46.541Z,81.50
2018-05-19T06:13:14.045Z,81.50
2018-05-19T06:15:41.515Z,80.60
2018-05-19T06:18:08.993Z,80.30
2018-05-19T06:20:36.493Z,80.50
2018-05-19T06:23:04.733Z,80.80
2018-05-19T06:25:32.209Z,80.60
2018-05-19T06:28:00.469Z,79.70
2018-05-19T06:30:27.941Z,79.70
2018-05-19T06:32:56.176Z,77.60
2018-05-19T06:35:23.673Z,77.60
2018-05-19T06:37:51.910Z,77.10
2018-05-19T06:40:19.386Z,76.40
2018-05-19T06:42:48.397Z,73.70
2018-05-19T06:45:15.894Z,73.80
2018-05-19T06:47:43.365Z,73.30
2018-05-19T06:50:10.853Z,73.50
2018-05-19T06:52:38.362Z,72.50
2018-05-19T06:55:05.837Z,72.50
2018-05-19T06:57:33.335Z,71.90
2018-05-19T07:00:00.815Z,70.20
2018-05-19T07:02:28.295Z,69.60
2018-05-19T07:04:55.789Z,69.50
2018-05-19T07:07:23.260Z,72.10
2018-05-19T07:09:51.497Z,65.50
2018-05-19T07:12:18.989Z,65.40
2018-05-19T07:14:46.484Z,64.10
2018-05-19T07:17:13.957Z,65.00
2018-05-19T07:19:42.593Z,63.90
2018-05-19T07:22:10.868Z,62.40
2018-05-19T07:24:39.110Z,62.00
2018-05-19T07:27:06.613Z,62.00
2018-05-19T07:29:34.084Z,60.30
2018-05-19T07:32:01.561Z,60.90
2018-05-19T07:34:29.059Z,60.40
2018-05-19T07:36:57.301Z,62.80
2018-05-19T07:39:24.843Z,62.70
2018-05-19T07:41:53.058Z,59.00
2018-05-19T07:44:21.669Z,56.50
2018-05-19T07:46:49.145Z,57.00
2018-05-19T07:49:16.641Z,56.00
2018-05-19T07:51:44.111Z,56.50
2018-05-19T07:54:12.356Z,57.60
2018-05-19T07:56:39.852Z,57.50
2018-05-19T07:59:08.156Z,56.80
2018-05-19T08:01:35.633Z,56.80
2018-05-19T08:04:03.131Z,54.50
2018-05-19T08:06:31.365Z,55.00
2018-05-19T08:08:58.837Z,55.00
2018-05-19T08:11:26.475Z,56.70
2018-05-19T08:13:53.941Z,54.60
2018-05-19T08:16:21.422Z,55.30
2018-05-19T08:18:48.910Z,50.00
2018-05-19T08:21:16.385Z,47.80
2018-05-19T08:23:43.862Z,46.70
2018-05-19T08:26:12.504Z,46.30
2018-05-19T08:28:39.982Z,47.50
2018-05-19T08:31:07.454Z,47.20
2018-05-19T08:33:34.957Z,46.10
2018-05-19T08:36:03.210Z,40.70
2018-05-19T08:38:30.693Z,40.50
2018-05-19T08:40:58.954Z,37.10
2018-05-19T08:43:27.195Z,35.30
2018-05-19T08:45:54.665Z,35.20
2018-05-19T08:48:22.161Z,34.60
2018-05-19T08:50:49.631Z,33.50
2018-05-19T08:53:17.111Z,33.90
2018-05-19T08:55:44.608Z,38.70
2018-05-19T08:58:12.895Z,34.40
2018-05-19T09:00:40.330Z,34.40
2018-05-19T09:03:07.820Z,34.50
2018-05-19T09:05:35.297Z,32.50
2018-05-19T09:08:02.769Z,33.00
2018-05-19T09:10:30.258Z,30.40
2018-05-19T09:12:58.501Z,34.60
2018-05-19T09:15:26.741Z,33.60
2018-05-19T09:17:54.244Z,33.50
2018-05-19T09:20:21.721Z,32.90
2018-05-19T09:22:49.962Z,29.80
2018-05-19T09:25:17.453Z,29.80
2018-05-19T09:27:46.061Z,29.40
2018-05-19T09:30:13.544Z,30.30
2018-05-19T09:32:41.037Z,29.40
2018-05-19T09:35:08.513Z,30.10
2018-05-19T09:37:36.756Z,30.90
2018-05-19T09:40:04.253Z,31.10
2018-05-19T09:42:31.722Z,34.10
2018-05-19T09:44:59.196Z,37.30
2018-05-19T09:47:26.809Z,41.40
2018-05-19T09:49:54.941Z,45.40
2018-05-19T09:52:22.425Z,45.20
2018-05-19T09:54:50.684Z,47.90
2018-05-19T09:57:18.929Z,46.90
2018-05-19T09:59:46.401Z,46.90
2018-05-19T10:02:13.913Z,46.80
2018-05-19T10:04:41.382Z,46.20
2018-05-19T10:07:08.858Z,44.10
2018-05-19T10:09:36.353Z,42.80
2018-05-19T10:12:04.594Z,39.00
2018-05-19T10:14:32.124Z,39.70
2018-05-19T10:16:59.629Z,38.30
2018-05-19T10:19:27.146Z,38.10
2018-05-19T10:21:55.741Z,38.90
2018-05-19T10:24:23.243Z,38.90
2018-05-19T10:26:51.478Z,42.90
2018-05-19T10:29:18.945Z,42.90
2018-05-19T10:31:46.460Z,43.60
2018-05-19T10:34:13.951Z,43.30
2018-05-19T10:36:41.738Z,45.20
2018-05-19T10:39:10.003Z,42.20
2018-05-19T10:41:37.468Z,42.00
2018-05-19T10:44:04.936Z,36.10
2018-05-19T10:46:33.198Z,31.80
2018-05-19T10:49:00.669Z,31.70
2018-05-19T10:51:28.905Z,31.00
2018-05-19T10:53:56.397Z,31.00
2018-05-19T10:56:24.633Z,29.30
2018-05-19T10:58:52.101Z,29.30
2018-05-19T11:01:19.602Z,29.10
2018-05-19T11:03:47.073Z,29.00
2018-05-19T11:06:14.545Z,28.70
2018-05-19T11:08:42.043Z,27.70
2018-05-19T11:11:10.290Z,28.60
2018-05-19T11:13:37.767Z,28.60
2018-05-19T11:16:05.260Z,27.80
2018-05-19T11:18:32.758Z,29.80
2018-05-19T11:21:00.237Z,29.80
2018-05-19T11:23:28.498Z,28.90
2018-05-19T11:25:55.971Z,29.00
2018-05-19T11:28:24.207Z,28.70
2018-05-19T11:30:51.711Z,28.70
2018-05-19T11:33:19.949Z,28.70
2018-05-19T11:35:47.425Z,28.60
2018-05-19T11:38:14.918Z,31.10
2018-05-19T11:40:42.485Z,31.70
2018-05-19T11:43:09.953Z,31.10
2018-05-19T11:45:37.457Z,32.10
2018-05-19T11:48:05.693Z,29.60
2018-05-19T11:50:33.246Z,29.60
2018-05-19T11:53:00.689Z,31.20
2018-05-19T11:55:28.161Z,32.50
2018-05-19T11:57:55.629Z,35.10
2018-05-19T12:00:23.121Z,38.00
2018-05-19T12:02:51.368Z,39.20
2018-05-19T12:05:18.837Z,39.10
2018-05-19T12:07:47.099Z,40.50
2018-05-19T12:10:14.565Z,40.50
2018-05-19T12:12:42.037Z,43.60
2018-05-19T12:15:10.699Z,37.70
2018-05-19T12:17:38.170Z,38.40
2018-05-19T12:20:06.409Z,34.30
2018-05-19T12:22:33.926Z,34.50
2018-05-19T12:25:01.397Z,31.80
2018-05-19T12:27:28.865Z,30.40
2018-05-19T12:29:56.362Z,30.00
2018-05-19T12:32:24.602Z,30.60
2018-05-19T12:34:52.073Z,30.60
2018-05-19T12:37:19.577Z,32.70
2018-05-19T12:39:47.044Z,32.10
2018-05-19T12:42:14.518Z,33.30
2018-05-19T12:44:42.009Z,37.10
2018-05-19T12:47:09.479Z,38.80
2018-05-19T12:49:37.722Z,44.70
2018-05-19T12:52:05.221Z,44.70
2018-05-19T12:54:32.693Z,41.10
2018-05-19T12:57:00.174Z,42.70
2018-05-19T12:59:27.667Z,42.80
2018-05-19T13:01:55.901Z,43.10
2018-05-19T13:04:23.379Z,43.10
2018-05-19T13:06:50.881Z,42.40
2018-05-19T13:09:18.353Z,39.30
2018-05-19T13:11:45.825Z,35.50
2018-05-19T13:14:13.317Z,36.40
2018-05-19T13:16:40.793Z,36.00
2018-05-19T13:19:09.024Z,35.60
2018-05-19T13:21:36.530Z,35.60
2018-05-19T13:24:03.999Z,34.80
2018-05-19T13:26:31.473Z,34.10
2018-05-19T13:28:58.967Z,37.10
2018-05-19T13:31:26.437Z,39.60
2018-05-19T13:33:54.677Z,39.50
2018-05-19T13:36:22.173Z,39.50
2018-05-19T13:38:50.413Z,40.70
2018-05-19T13:41:17.929Z,40.60
2018-05-19T13:43:46.163Z,39.10
2018-05-19T13:46:14.479Z,38.00
2018-05-19T13:48:41.953Z,37.90
2018-05-19T13:51:09.452Z,38.70
2018-05-19T13:53:37.693Z,40.50
2018-05-19T13:56:05.165Z,40.50
2018-05-19T13:58:32.660Z,39.30
2018-05-19T14:01:00.129Z,37.20
2018-05-19T14:03:27.606Z,36.10
2018-05-19T14:05:55.132Z,34.70
2018-05-19T14:08:22.609Z,35.00
2018-05-19T14:10:50.080Z,36.70
2018-05-19T14:13:17.589Z,36.20
2018-05-19T14:15:45.073Z,34.20
2018-05-19T14:18:12.541Z,34.80
2018-05-19T14:20:40.054Z,36.80
2018-05-19T14:23:08.293Z,36.20
2018-05-19T14:25:35.773Z,36.20
2018-05-19T14:28:04.053Z,36.90
2018-05-19T14:30:32.502Z,36.60
2018-05-19T14:32:59.977Z,37.30
2018-05-19T14:35:28.246Z,38.40
2018-05-19T14:37:55.717Z,38.40
2018-05-19T14:40:24.025Z,36.70
2018-05-19T14:42:51.461Z,36.70
2018-05-19T14:45:18.932Z,37.00
2018-05-19T14:47:46.401Z,35.30
2018-05-19T14:50:14.218Z,35.20
2018-05-19T14:52:42.466Z,37.70
2018-05-19T14:55:09.936Z,37.70
2018-05-19T14:57:37.424Z,39.00
2018-05-19T15:00:04.893Z,39.70
2018-05-19T15:02:32.361Z,40.00
2018-05-19T15:04:59.855Z,38.20
2018-05-19T15:07:27.325Z,39.90
2018-05-19T15:09:55.563Z,38.80
2018-05-19T15:12:23.061Z,38.80
2018-05-19T15:14:51.292Z,39.40
2018-05-19T15:17:18.761Z,39.40
2018-05-19T15:19:46.297Z,41.40
2018-05-19T15:22:13.775Z,39.10
2018-05-19T15:24:41.257Z,39.50
2018-05-19T15:27:09.516Z,40.50
2018-05-19T15:29:36.989Z,40.50
2018-05-19T15:32:05.234Z,42.90
2018-05-19T15:34:32.734Z,43.00
2018-05-19T15:37:00.208Z,41.00
2018-05-19T15:39:27.681Z,40.90
2018-05-19T15:41:55.178Z,44.70
2018-05-19T15:44:22.653Z,41.40
2018-05-19T15:46:50.896Z,43.00
2018-05-19T15:49:18.385Z,43.10
2018-05-19T15:51:45.858Z,42.90
2018-05-19T15:54:13.333Z,44.60
2018-05-19T15:56:40.833Z,44.70
2018-05-19T15:59:09.066Z,45.50
2018-05-19T16:01:36.538Z,44.80
2018-05-19T16:04:04.058Z,46.10
2018-05-19T16:06:31.529Z,45.40
2018-05-19T16:08:59.004Z,44.80
2018-05-19T16:11:26.493Z,45.10
2018-05-19T16:13:54.733Z,46.70
2018-05-19T16:16:22.211Z,46.50
2018-05-19T16:18:49.710Z,46.30
2018-05-19T16:21:17.185Z,46.20
2018-05-19T16:23:44.657Z,47.40
2018-05-19T16:26:12.179Z,47.60
2018-05-19T16:28:39.648Z,48.40
2018-05-19T16:31:07.125Z,47.80
2018-05-19T16:33:34.621Z,48.10
2018-05-19T16:36:02.857Z,49.10
2018-05-19T16:38:30.329Z,49.40
2018-05-19T16:40:57.832Z,48.80
2018-05-19T16:43:25.313Z,49.00
2018-05-19T16:45:52.780Z,48.70
2018-05-19T16:48:20.274Z,48.90
2018-05-19T16:50:48.521Z,49.10
2018-05-19T16:53:15.990Z,49.10
2018-05-19T16:55:43.481Z,48.70
2018-05-19T16:58:10.953Z,49.00
2018-05-19T17:00:38.421Z,49.70
2018-05-19T17:03:05.917Z,50.40
2018-05-19T17:05:34.157Z,51.00
2018-05-19T17:08:01.627Z,51.00
2018-05-19T17:10:29.121Z,50.80
2018-05-19T17:12:57.353Z,51.40
2018-05-19T17:15:24.824Z,51.40
2018-05-19T17:17:52.320Z,51.80
2018-05-19T17:20:19.789Z,53.00
2018-05-19T17:22:47.260Z,52.60
2018-05-19T17:25:14.761Z,54.60
2018-05-19T17:27:42.993Z,52.50
2018-05-19T17:30:10.463Z,52.50
2018-05-19T17:32:37.953Z,52.30
2018-05-19T17:35:06.203Z,52.30
2018-05-19T17:37:33.673Z,52.30
2018-05-19T17:40:01.986Z,52.80
2018-05-19T17:42:29.457Z,52.80
2018-05-19T17:44:56.925Z,53.10
2018-05-19T17:47:24.429Z,52.70
2018-05-19T17:49:52.661Z,54.10
2018-05-19T17:52:20.129Z,54.10
2018-05-19T17:54:47.622Z,54.00
2018-05-19T17:57:15.096Z,54.60
2018-05-19T17:59:42.570Z,54.30
2018-05-19T18:02:10.826Z,54.20
2018-05-19T18:04:38.300Z,54.30
2018-05-19T18:07:05.773Z,54.60
2018-05-19T18:09:33.268Z,55.00
2018-05-19T18:12:01.501Z,56.00
2018-05-19T18:14:28.973Z,55.90
2018-05-19T18:16:56.467Z,56.10
2018-05-19T18:19:23.953Z,56.60
2018-05-19T18:21:51.425Z,57.10
2018-05-19T18:24:18.918Z,57.40
2018-05-19T18:26:47.157Z,58.10
2018-05-19T18:29:14.633Z,58.00
2018-05-19T18:31:42.133Z,58.30
2018-05-19T18:34:09.604Z,58.70
2018-05-19T18:36:37.072Z,59.00
2018-05-19T18:39:05.301Z,59.50
2018-05-19T18:41:32.772Z,59.20
2018-05-19T18:44:00.241Z,60.00
2018-05-19T18:46:27.782Z,59.90
2018-05-19T18:48:55.249Z,60.00
2018-05-19T18:51:22.725Z,60.20
2018-05-19T18:53:50.221Z,60.90
2018-05-19T18:56:18.457Z,61.50
2018-05-19T18:58:45.937Z,61.40
2018-05-19T19:01:13.430Z,62.10
2018-05-19T19:03:40.901Z,62.10
2018-05-19T19:06:08.382Z,62.90
2018-05-19T19:08:35.870Z,63.30
2018-05-19T19:11:04.109Z,64.00
2018-05-19T19:13:31.577Z,63.90
2018-05-19T19:15:59.081Z,64.50
2018-05-19T19:18:26.653Z,64.60
2018-05-19T19:20:54.055Z,65.40
2018-05-19T19:23:21.547Z,65.60
2018-05-19T19:25:49.116Z,66.20
2018-05-19T19:28:16.589Z,66.80
2018-05-19T19:30:44.081Z,67.60
2018-05-19T19:33:11.555Z,68.20
2018-05-19T19:35:39.789Z,68.90
2018-05-19T19:38:07.285Z,68.90
2018-05-19T19:40:35.521Z,70.10
2018-05-19T19:43:03.074Z,70.10
2018-05-19T19:45:31.270Z,71.00
2018-05-19T19:47:58.738Z,70.80
2018-05-19T19:50:26.974Z,72.00
2018-05-19T19:52:54.462Z,72.00
2018-05-19T19:55:21.933Z,72.10
2018-05-19T19:57:50.169Z,71.70
2018-05-19T20:00:17.654Z,71.70
2018-05-19T20:02:45.885Z,72.60
2018-05-19T20:05:13.385Z,72.60
2018-05-19T20:07:41.711Z,72.30
2018-05-19T20:10:09.915Z,72.20
2018-05-19T20:12:37.405Z,72.20
2018-05-19T20:15:04.881Z,72.60
2018-05-19T20:17:32.581Z,73.10
2018-05-19T20:20:00.069Z,73.30
2018-05-19T20:22:28.306Z,73.00
2018-05-19T20:24:56.137Z,73.00
2018-05-19T20:27:23.605Z,73.60
2018-05-19T20:29:51.080Z,74.00
2018-05-19T20:32:18.577Z,74.00
2018-05-19T20:34:46.812Z,75.30
2018-05-19T20:37:14.298Z,75.30
2018-05-19T20:39:42.543Z,75.50
2018-05-19T20:42:10.031Z,75.50
2018-05-19T20:44:38.289Z,76.70
2018-05-19T20:47:05.774Z,76.60
2018-05-19T20:49:33.245Z,76.50
2018-05-19T20:52:00.709Z,77.20
2018-05-19T20:54:28.216Z,77.10
2018-05-19T20:56:55.685Z,77.80
2018-05-19T20:59:23.920Z,77.80
2018-05-19T21:01:51.413Z,77.80
2018-05-19T21:04:19.644Z,77.60
2018-05-19T21:06:47.129Z,77.40
2018-05-19T21:09:14.601Z,77.90
2018-05-19T21:11:42.869Z,78.90
2018-05-19T21:14:11.108Z,78.70
2018-05-19T21:16:38.577Z,78.70
2018-05-19T21:19:06.160Z,78.00
2018-05-19T21:21:33.560Z,78.00
2018-05-19T21:24:01.044Z,79.70
2018-05-19T21:26:28.544Z,80.40
2018-05-19T21:28:56.021Z,80.60
2018-05-19T21:31:23.494Z,81.70
2018-05-19T21:33:50.987Z,81.50
2018-05-19T21:36:19.225Z,82.80
2018-05-19T21:38:46.721Z,82.70
2018-05-19T21:41:14.957Z,82.80
2018-05-19T21:43:42.425Z,82.70
2018-05-19T21:46:09.921Z,82.50
2018-05-19T21:48:37.499Z,82.80
2018-05-19T21:51:04.989Z,82.80
2018-05-19T21:53:32.469Z,83.60
2018-05-19T21:55:59.963Z,83.50
2018-05-19T21:58:27.525Z,83.50
2018-05-19T22:00:55.005Z,84.00
2018-05-19T22:03:22.506Z,84.00
2018-05-19T22:05:50.745Z,84.70
2018-05-19T22:08:18.229Z,84.60
2018-05-19T22:10:46.481Z,85.20
2018-05-19T22:13:13.957Z,85.20
2018-05-19T22:15:42.225Z,86.10
2018-05-19T22:18:09.693Z,86.10
2018-05-19T22:20:42.422Z,86.30
2018-05-19T22:23:09.889Z,86.30
2018-05-19T22:25:37.369Z,87.00
2018-05-19T22:28:04.861Z,87.80
2018-05-19T22:30:32.562Z,88.20
2018-05-19T22:33:00.033Z,89.00
2018-05-19T22:35:27.529Z,88.90
2018-05-19T22:37:55.001Z,88.60
2018-05-19T22:40:22.475Z,88.90
2018-05-19T22:42:49.976Z,88.10
2018-05-19T22:45:18.224Z,88.50
2018-05-19T22:47:45.697Z,88.50
2018-05-19T22:50:13.194Z,89.00
2018-05-19T22:52:40.674Z,88.40
2018-05-19T22:55:08.149Z,88.30
2018-05-19T22:57:35.649Z,88.80
2018-05-19T23:00:03.125Z,89.00
2018-05-19T23:02:30.605Z,89.10
2018-05-19T23:04:58.877Z,90.20
2018-05-19T23:07:26.349Z,90.40
2018-05-19T23:09:53.821Z,90.40
2018-05-19T23:12:21.315Z,90.60
2018-05-19T23:14:48.789Z,91.20
2018-05-19T23:17:16.262Z,91.40
2018-05-19T23:19:44.873Z,91.70
2018-05-19T23:22:14.970Z,92.00
2018-05-19T23:24:42.449Z,91.90
2018-05-19T23:27:10.721Z,92.60
2018-05-19T23:29:38.961Z,92.30
2018-05-19T23:32:06.439Z,92.30
2018-05-19T23:34:33.937Z,92.40
2018-05-19T23:37:01.410Z,92.30
2018-05-19T23:39:28.889Z,92.70
2018-05-19T23:41:56.381Z,92.80
2018-05-19T23:44:24.620Z,93.50
2018-05-19T23:46:52.100Z,93.40
2018-05-19T23:49:19.608Z,93.60
2018-05-19T23:51:47.078Z,94.10
2018-05-19T23:54:14.559Z,94.50
2018-05-19T23:56:42.052Z,95.30
2018-05-19T23:59:09.525Z,95.50
